createdAt,value
2022-10-04T00:00:19.509Z,94.59
2022-10-04T00:02:26.657Z,94.59
2022-10-04T00:04:19.980Z,94.59
2022-10-04T00:06:19.877Z,94.59
2022-10-04T00:08:15.520Z,94.70
2022-10-04T00:10:41.920Z,94.59
2022-10-04T00:13:21.228Z,94.59
2022-10-04T00:16:14.205Z,94.59
2022-10-04T00:18:06.281Z,94.59
2022-10-04T00:22:10.597Z,94.59
2022-10-04T00:24:01.163Z,94.59
2022-10-04T00:25:16.961Z,94.59
2022-10-04T00:27:38.373Z,94.59
2022-10-04T00:29:09.708Z,94.49
2022-10-04T00:31:28.796Z,94.53
2022-10-04T00:33:04.654Z,94.64
2022-10-04T00:34:36.086Z,94.74
2022-10-04T00:36:10.985Z,94.84
2022-10-04T00:38:38.778Z,94.84
2022-10-04T00:40:07.017Z,94.94
2022-10-04T00:44:29.916Z,95.04
2022-10-04T00:47:13.403Z,95.25
2022-10-04T00:50:56.617Z,95.25
2022-10-04T00:54:26.662Z,95.35
2022-10-04T00:55:24.567Z,95.35
2022-10-04T00:56:03.005Z,95.35
2022-10-04T00:58:24.657Z,95.45
2022-10-04T01:01:34.943Z,95.45
2022-10-04T01:03:08.374Z,95.45
2022-10-04T01:04:36.880Z,95.56
2022-10-04T01:06:48.093Z,95.56
2022-10-04T01:08:23.887Z,95.56
2022-10-04T01:11:29.745Z,95.56
2022-10-04T01:13:17.017Z,95.56
2022-10-04T01:15:58.790Z,95.56
2022-10-04T01:21:29.138Z,95.56
2022-10-04T01:27:58.486Z,95.65
2022-10-04T01:31:14.878Z,95.65
2022-10-04T01:34:12.441Z,95.65
2022-10-04T01:41:03.882Z,95.76
2022-10-04T01:42:33.763Z,95.76
2022-10-04T01:45:26.874Z,95.86
2022-10-04T01:47:48.993Z,95.86
2022-10-04T01:49:35.731Z,95.86
2022-10-04T01:51:06.631Z,95.86
2022-10-04T01:53:08.314Z,95.86
2022-10-04T01:55:53.558Z,95.86
2022-10-04T01:58:18.363Z,95.86
2022-10-04T02:00:30.183Z,95.76
2022-10-04T02:02:17.563Z,95.76
2022-10-04T02:04:40.577Z,95.76
2022-10-04T02:07:25.071Z,95.76
2022-10-04T02:11:21.844Z,95.65
2022-10-04T02:12:53.018Z,95.65
2022-10-04T02:14:29.538Z,95.65
2022-10-04T02:16:45.426Z,95.65
2022-10-04T02:17:55.295Z,95.65
2022-10-04T02:20:10.325Z,95.56
2022-10-04T02:21:56.715Z,95.56
2022-10-04T02:23:55.866Z,95.45
2022-10-04T02:25:25.922Z,95.45
2022-10-04T02:28:31.738Z,95.35
2022-10-04T02:31:25.022Z,95.15
2022-10-04T02:36:15.716Z,95.04
2022-10-04T02:39:27.549Z,95.15
2022-10-04T02:40:32.175Z,95.15
2022-10-04T02:42:04.456Z,95.15
2022-10-04T02:44:08.099Z,95.09
2022-10-04T02:47:19.527Z,95.19
2022-10-04T02:48:51.102Z,95.09
2022-10-04T02:50:20.971Z,95.09
2022-10-04T02:55:13.158Z,94.98
2022-10-04T03:03:34.642Z,95.19
2022-10-04T03:05:07.365Z,95.19
2022-10-04T03:06:39.429Z,95.19
2022-10-04T03:09:05.564Z,95.09
2022-10-04T03:10:55.043Z,94.98
2022-10-04T03:13:34.072Z,94.93
2022-10-04T03:15:27.549Z,94.93
2022-10-04T03:16:59.455Z,94.93
2022-10-04T03:22:03.346Z,94.93
2022-10-04T03:26:04.749Z,95.03
2022-10-04T03:28:14.177Z,95.13
2022-10-04T03:29:46.123Z,95.23
2022-10-04T03:32:06.479Z,95.38
2022-10-04T03:38:34.455Z,95.59
2022-10-04T03:40:06.027Z,95.59
2022-10-04T03:41:38.517Z,95.59
2022-10-04T03:43:25.776Z,95.59
2022-10-04T03:47:40.728Z,95.59
2022-10-04T03:49:12.708Z,95.59
2022-10-04T03:51:09.543Z,95.69
2022-10-04T03:52:46.860Z,95.69
2022-10-04T03:54:22.778Z,95.69
2022-10-04T03:57:22.165Z,95.69
2022-10-04T04:02:46.206Z,95.73
2022-10-04T04:05:51.433Z,95.84
2022-10-04T04:07:49.257Z,95.84
2022-10-04T04:09:48.824Z,95.94
2022-10-04T04:13:59.110Z,96.04
2022-10-04T04:17:42.733Z,96.04
2022-10-04T04:19:42.592Z,96.14
2022-10-04T04:22:18.651Z,96.25
2022-10-04T04:24:04.455Z,96.34
2022-10-04T04:27:29.291Z,96.49
2022-10-04T04:30:31.905Z,96.59
2022-10-04T04:42:42.776Z,96.80
2022-10-04T04:54:45.023Z,96.91
2022-10-04T04:59:06.000Z,96.80
2022-10-04T05:07:40.512Z,96.84
2022-10-04T05:10:16.468Z,96.84
2022-10-04T05:15:40.137Z,96.74
2022-10-04T05:18:11.245Z,96.64
2022-10-04T05:22:55.087Z,96.64
2022-10-04T05:31:07.602Z,96.54
2022-10-04T05:33:15.224Z,96.58
2022-10-04T05:35:07.553Z,96.64
2022-10-04T05:38:23.893Z,96.89
2022-10-04T05:40:37.844Z,96.89
2022-10-04T05:47:33.754Z,96.99
2022-10-04T05:58:38.102Z,97.30
2022-10-04T06:16:10.551Z,97.81
2022-10-04T06:24:07.724Z,98.02
2022-10-04T06:31:32.580Z,98.12
2022-10-04T06:34:00.915Z,98.22
2022-10-04T06:35:33.202Z,98.22
2022-10-04T06:37:48.559Z,98.22
2022-10-04T06:40:02.389Z,98.18
2022-10-04T07:03:09.238Z,98.07
2022-10-04T07:06:33.767Z,98.07
2022-10-04T07:14:35.119Z,98.18
2022-10-04T07:23:50.750Z,97.82
2022-10-04T07:26:36.084Z,97.62
2022-10-04T07:28:07.812Z,97.62
2022-10-04T07:31:50.890Z,97.16
2022-10-04T07:34:11.923Z,97.06
2022-10-04T07:41:45.651Z,96.75
2022-10-04T07:45:49.031Z,96.25
2022-10-04T07:48:02.242Z,96.25
2022-10-04T07:50:39.291Z,96.00
2022-10-04T07:53:09.316Z,96.00
2022-10-04T07:54:54.793Z,95.79
2022-10-04T07:58:12.589Z,95.54
2022-10-04T08:00:17.422Z,95.44
2022-10-04T08:07:47.127Z,94.89
2022-10-04T08:09:16.720Z,94.78
2022-10-04T08:11:38.341Z,94.64
2022-10-04T08:13:06.418Z,94.23
2022-10-04T08:28:09.020Z,92.46
2022-10-04T08:29:40.787Z,91.75
2022-10-04T08:33:00.278Z,91.35
2022-10-04T08:34:48.023Z,91.03
2022-10-04T08:37:14.413Z,91.03
2022-10-04T08:40:47.540Z,90.79
2022-10-04T08:43:46.344Z,90.59
2022-10-04T08:51:54.064Z,89.53
2022-10-04T08:59:37.245Z,88.87
2022-10-04T09:02:14.987Z,88.87
2022-10-04T09:04:10.401Z,88.46
2022-10-04T09:08:36.911Z,88.57
2022-10-04T09:10:51.025Z,88.87
2022-10-04T09:20:13.938Z,88.69
2022-10-04T09:25:42.381Z,88.24
2022-10-04T09:28:00.572Z,87.73
2022-10-04T09:30:18.118Z,86.51
2022-10-04T09:35:23.724Z,86.88
2022-10-04T09:47:56.353Z,86.08
2022-10-04T09:49:55.070Z,84.56
2022-10-04T09:51:48.048Z,83.40
2022-10-04T09:53:52.223Z,83.00
2022-10-04T09:55:22.720Z,83.31
2022-10-04T10:05:30.441Z,81.30
2022-10-04T10:06:09.445Z,81.30
2022-10-04T10:07:09.410Z,81.37
2022-10-04T10:08:09.441Z,81.16
2022-10-04T10:10:12.323Z,79.85
2022-10-04T10:12:44.879Z,79.60
2022-10-04T10:15:22.610Z,78.69
2022-10-04T10:17:15.632Z,77.88
2022-10-04T10:20:13.218Z,78.96
2022-10-04T10:23:18.966Z,78.62
2022-10-04T10:25:44.796Z,77.37
2022-10-04T10:29:47.912Z,76.52
2022-10-04T10:32:20.135Z,74.80
2022-10-04T10:33:50.164Z,74.97
2022-10-04T10:36:13.010Z,75.07
2022-10-04T10:40:43.214Z,73.18
2022-10-04T10:42:12.322Z,75.20
2022-10-04T10:43:43.106Z,75.77
2022-10-04T10:45:14.307Z,75.43
2022-10-04T10:53:51.501Z,66.97
2022-10-04T10:55:58.139Z,66.77
2022-10-04T11:02:50.275Z,67.81
2022-10-04T11:07:05.461Z,65.47
2022-10-04T11:08:35.149Z,66.03
2022-10-04T11:10:06.085Z,63.73
2022-10-04T11:11:58.866Z,65.73
2022-10-04T11:13:54.710Z,64.30
2022-10-04T11:18:45.885Z,65.77
2022-10-04T11:20:51.316Z,62.90
2022-10-04T11:22:25.240Z,61.70
2022-10-04T11:28:49.747Z,61.77
2022-10-04T11:30:18.371Z,63.64
2022-10-04T11:36:47.019Z,62.11
2022-10-04T11:39:07.975Z,60.81
2022-10-04T11:42:17.574Z,62.31
2022-10-04T11:45:24.878Z,62.08
2022-10-04T11:49:32.398Z,59.38
2022-10-04T11:52:51.879Z,61.31
2022-10-04T11:54:21.728Z,60.18
2022-10-04T11:57:27.190Z,60.21
2022-10-04T12:03:55.344Z,57.98
2022-10-04T12:05:26.410Z,60.65
2022-10-04T12:09:58.665Z,57.65
2022-10-04T12:11:25.376Z,58.95
2022-10-04T12:13:24.859Z,59.62
2022-10-04T12:22:29.075Z,59.09
2022-10-04T12:24:38.828Z,57.92
2022-10-04T12:27:05.973Z,57.92
2022-10-04T12:30:28.871Z,59.19
2022-10-04T12:33:49.709Z,55.99
2022-10-04T12:36:04.357Z,57.82
2022-10-04T12:38:42.710Z,58.32
2022-10-04T12:41:45.244Z,57.82
2022-10-04T12:45:40.488Z,58.22
2022-10-04T12:48:06.327Z,55.82
2022-10-04T12:50:04.051Z,55.02
2022-10-04T12:52:20.501Z,56.98
2022-10-04T12:55:26.976Z,57.37
2022-10-04T12:59:01.118Z,59.64
2022-10-04T13:10:25.571Z,59.79
2022-10-04T13:13:31.540Z,60.19
2022-10-04T13:19:47.000Z,60.02
2022-10-04T13:26:36.099Z,61.05
2022-10-04T13:29:14.899Z,60.98
2022-10-04T13:32:20.084Z,61.49
2022-10-04T13:33:52.160Z,62.49
2022-10-04T13:35:48.724Z,62.08
2022-10-04T13:38:38.032Z,62.32
2022-10-04T13:40:08.048Z,62.69
2022-10-04T13:49:49.020Z,62.39
2022-10-04T13:51:48.713Z,60.58
2022-10-04T14:01:46.422Z,61.49
2022-10-04T14:06:16.429Z,61.82
2022-10-04T14:08:05.197Z,62.42
2022-10-04T14:09:39.164Z,63.73
2022-10-04T14:12:21.302Z,62.92
2022-10-04T14:16:22.683Z,60.81
2022-10-04T14:27:26.323Z,60.94
2022-10-04T14:28:55.470Z,62.24
2022-10-04T14:31:55.006Z,62.24
2022-10-04T14:34:53.785Z,62.07
2022-10-04T14:36:53.175Z,63.28
2022-10-04T14:41:20.655Z,62.61
2022-10-04T14:44:41.606Z,63.42
2022-10-04T14:46:40.562Z,64.72
2022-10-04T14:49:27.717Z,63.11
2022-10-04T14:50:57.758Z,62.71
2022-10-04T14:59:48.595Z,63.92
2022-10-04T15:01:19.608Z,64.42
2022-10-04T15:05:34.089Z,64.22
2022-10-04T15:07:06.045Z,65.02
2022-10-04T15:10:56.198Z,65.33
2022-10-04T15:16:23.380Z,65.46
2022-10-04T15:18:24.595Z,65.76
2022-10-04T15:20:55.496Z,66.06
2022-10-04T15:23:18.019Z,66.16
2022-10-04T15:24:29.267Z,66.67
2022-10-04T15:27:22.845Z,65.89
2022-10-04T15:29:52.872Z,65.89
2022-10-04T15:39:03.939Z,66.90
2022-10-04T15:43:06.584Z,67.84
2022-10-04T15:45:39.896Z,68.34
2022-10-04T15:51:32.963Z,68.54
2022-10-04T15:53:36.887Z,68.57
2022-10-04T16:05:22.243Z,69.28
2022-10-04T16:07:54.505Z,69.52
2022-10-04T16:09:21.752Z,70.22
2022-10-04T16:12:41.691Z,70.53
2022-10-04T16:16:08.506Z,69.62
2022-10-04T16:20:47.282Z,70.12
2022-10-04T16:33:27.361Z,71.26
2022-10-04T16:48:08.219Z,73.75
2022-10-04T16:57:24.281Z,75.81
2022-10-04T17:04:56.519Z,77.26
2022-10-04T17:06:48.706Z,77.26
2022-10-04T17:07:48.406Z,77.37
2022-10-04T17:08:48.273Z,77.57
2022-10-04T17:09:48.211Z,77.71
2022-10-04T17:19:16.884Z,79.16
2022-10-04T17:24:23.967Z,79.40
2022-10-04T17:28:11.121Z,79.50
2022-10-04T17:36:15.970Z,80.35
2022-10-04T17:40:05.170Z,80.59
2022-10-04T17:48:33.096Z,81.13
2022-10-04T17:50:16.498Z,81.13
2022-10-04T17:53:40.058Z,81.24
2022-10-04T17:59:11.082Z,81.18
2022-10-04T18:00:45.365Z,81.27
2022-10-04T18:04:16.678Z,80.77
2022-10-04T18:10:47.500Z,80.77
2022-10-04T18:12:20.378Z,80.87
2022-10-04T18:14:55.487Z,79.96
2022-10-04T18:22:54.529Z,79.75
2022-10-04T18:26:39.430Z,79.75
2022-10-04T18:32:33.858Z,79.65
2022-10-04T18:35:41.828Z,79.45
2022-10-04T18:38:04.612Z,79.35
2022-10-04T18:40:04.231Z,79.35
2022-10-04T18:42:35.408Z,79.35
2022-10-04T18:44:05.545Z,79.35
2022-10-04T18:45:39.887Z,79.65
2022-10-04T18:47:06.935Z,79.69
2022-10-04T18:48:42.621Z,79.79
2022-10-04T18:55:15.736Z,79.99
2022-10-04T18:57:59.055Z,79.99
2022-10-04T18:59:59.825Z,79.90
2022-10-04T19:03:06.385Z,79.90
2022-10-04T19:07:04.069Z,79.49
2022-10-04T19:09:12.450Z,79.59
2022-10-04T19:22:47.589Z,79.99
2022-10-04T19:28:09.810Z,80.24
2022-10-04T19:29:38.159Z,80.33
2022-10-04T19:32:14.528Z,80.13
2022-10-04T19:34:06.510Z,80.03
2022-10-04T19:36:27.830Z,80.03
2022-10-04T19:39:34.823Z,80.24
2022-10-04T19:47:47.427Z,80.37
2022-10-04T19:49:41.352Z,80.37
2022-10-04T19:56:56.000Z,80.37
2022-10-04T19:59:33.780Z,80.27
2022-10-04T20:01:35.045Z,80.47
2022-10-04T20:03:05.115Z,80.47
2022-10-04T20:04:35.937Z,80.68
2022-10-04T20:07:33.807Z,80.37
2022-10-04T20:10:20.733Z,80.47
2022-10-04T20:13:33.134Z,80.68
2022-10-04T20:15:27.665Z,80.58
2022-10-04T20:17:43.287Z,80.58
2022-10-04T20:23:28.658Z,80.68
2022-10-04T20:25:51.468Z,80.68
2022-10-04T20:30:27.468Z,80.68
2022-10-04T20:32:46.836Z,80.88
2022-10-04T20:37:43.532Z,80.98
2022-10-04T20:40:57.838Z,81.09
2022-10-04T20:42:49.541Z,81.09
2022-10-04T20:46:19.904Z,81.09
2022-10-04T20:47:55.467Z,81.19
2022-10-04T20:49:51.268Z,81.29
2022-10-04T20:51:22.138Z,81.35
2022-10-04T20:54:06.187Z,81.45
2022-10-04T20:58:38.599Z,81.66
2022-10-04T21:00:08.123Z,81.66
2022-10-04T21:01:58.829Z,81.76
2022-10-04T21:03:30.870Z,81.86
2022-10-04T21:07:24.745Z,81.76
2022-10-04T21:10:40.969Z,81.76
2022-10-04T21:12:12.612Z,81.76
2022-10-04T21:13:41.719Z,81.86
2022-10-04T21:16:20.986Z,81.76
2022-10-04T21:23:07.822Z,81.86
2022-10-04T21:25:28.411Z,81.86
2022-10-04T21:27:17.719Z,81.86
2022-10-04T21:30:13.569Z,81.96
2022-10-04T21:32:03.675Z,81.96
2022-10-04T21:34:07.217Z,81.92
2022-10-04T21:38:01.150Z,82.03
2022-10-04T21:40:34.997Z,82.03
2022-10-04T21:42:21.499Z,82.12
2022-10-04T21:45:36.265Z,82.12
2022-10-04T21:48:14.771Z,82.43
2022-10-04T21:50:04.343Z,82.23
2022-10-04T21:59:41.988Z,82.43
2022-10-04T22:01:12.161Z,82.43
2022-10-04T22:03:04.019Z,82.53
2022-10-04T22:04:36.371Z,82.43
2022-10-04T22:06:26.839Z,82.43
2022-10-04T22:07:58.702Z,82.43
2022-10-04T22:11:50.104Z,82.53
2022-10-04T22:14:29.512Z,82.53
2022-10-04T22:15:59.092Z,82.53
2022-10-04T22:18:31.635Z,82.53
2022-10-04T22:20:52.176Z,82.53
2022-10-04T22:23:42.172Z,82.43
2022-10-04T22:32:03.677Z,82.64
2022-10-04T22:36:51.389Z,82.64
2022-10-04T22:41:55.044Z,82.70
2022-10-04T22:43:27.749Z,82.59
2022-10-04T22:45:47.455Z,82.70
2022-10-04T22:48:47.453Z,82.59
2022-10-04T22:51:10.639Z,82.50
2022-10-04T22:52:38.752Z,82.50
2022-10-04T22:55:01.567Z,82.59
2022-10-04T22:59:51.235Z,82.70
2022-10-04T23:01:24.071Z,82.80
2022-10-04T23:02:53.251Z,82.70
2022-10-04T23:04:48.894Z,82.70
2022-10-04T23:05:55.535Z,82.80
2022-10-04T23:07:58.608Z,82.80
2022-10-04T23:10:51.045Z,83.00
2022-10-04T23:16:07.791Z,83.00
2022-10-04T23:17:42.763Z,83.10
2022-10-04T23:19:39.305Z,83.00
2022-10-04T23:21:10.327Z,83.10
2022-10-04T23:24:41.678Z,83.31
2022-10-04T23:26:17.448Z,83.20
2022-10-04T23:34:56.399Z,83.51
2022-10-04T23:37:51.749Z,83.51
2022-10-04T23:39:40.108Z,83.51
2022-10-04T23:42:00.973Z,83.61
2022-10-04T23:44:15.296Z,83.51
2022-10-04T23:45:42.817Z,83.61
2022-10-04T23:47:40.688Z,83.51
2022-10-04T23:51:27.610Z,83.51
2022-10-04T23:54:57.960Z,83.61
2022-10-04T23:56:29.876Z,83.61
2022-10-04T23:58:20.323Z,83.81
